sensor_id;sensor_type;location;lat;lon;timestamp;temperature;humidity
38456;DHT22;24237;50.106;20.014;2023-04-01T00:01:32;12.90;99.90
38456;DHT22;24237;50.106;20.014;2023-04-01T00:03:58;13.00;99.90
38456;DHT22;24237;50.106;20.014;2023-04-01T00:06:24;12.80;99.90
38456;DHT22;24237;50.106;20.014;2023-04-01T00:08:50;12.90;99.90
38456;DHT22;24237;50.106;20.014;2023-04-01T00:11:16;13.00;99.90
38456;DHT22;24237;50.106;20.014;2023-04-01T00:13:42;13.10;99.90
38456;DHT22;24237;50.106;20.014;2023-04-01T00:16:08;12.80;99.90
38456;DHT22;24237;50.106;20.014;2023-04-01T00:18:34;12.70;99.90
38456;DHT22;24237;50.106;20.014;2023-04-01T00:21:00;12.80;99.90
38456;DHT22;24237;50.106;20.014;2023-04-01T00:23:26;13.00;99.90
38456;DHT22;24237;50.106;20.014;2023-04-01T00:25:52;12.80;99.90
38456;DHT22;24237;50.106;20.014;2023-04-01T00:28:19;12.70;99.90
38456;DHT22;24237;50.106;20.014;2023-04-01T00:30:45;12.70;99.90
38456;DHT22;24237;50.106;20.014;2023-04-01T00:33:11;12.60;99.90
38456;DHT22;24237;50.106;20.014;2023-04-01T00:35:37;12.70;99.90
38456;DHT22;24237;50.106;20.014;2023-04-01T00:38:03;12.80;99.90
38456;DHT22;24237;50.106;20.014;2023-04-01T00:40:32;12.70;99.90
38456;DHT22;24237;50.106;20.014;2023-04-01T00:42:59;12.70;99.90
38456;DHT22;24237;50.106;20.014;2023-04-01T00:47:58;12.80;99.90
38456;DHT22;24237;50.106;20.014;2023-04-01T00:50:26;12.70;99.90
38456;DHT22;24237;50.106;20.014;2023-04-01T00:52:54;12.70;99.90
38456;DHT22;24237;50.106;20.014;2023-04-01T00:55:21;12.70;99.90
38456;DHT22;24237;50.106;20.014;2023-04-01T00:57:48;12.70;99.90
38456;DHT22;24237;50.106;20.014;2023-04-01T01:00:16;12.60;99.90
38456;DHT22;24237;50.106;20.014;2023-04-01T01:02:45;12.70;99.90
38456;DHT22;24237;50.106;20.014;2023-04-01T01:05:16;12.80;99.90
38456;DHT22;24237;50.106;20.014;2023-04-01T01:07:56;12.60;99.90
38456;DHT22;24237;50.106;20.014;2023-04-01T01:10:34;12.60;99.90
38456;DHT22;24237;50.106;20.014;2023-04-01T01:13:11;12.50;99.90
38456;DHT22;24237;50.106;20.014;2023-04-01T01:15:49;12.70;99.90
38456;DHT22;24237;50.106;20.014;2023-04-01T01:18:27;12.60;99.90
38456;DHT22;24237;50.106;20.014;2023-04-01T01:21:38;12.60;99.90
38456;DHT22;24237;50.106;20.014;2023-04-01T01:27:09;12.50;99.90
38456;DHT22;24237;50.106;20.014;2023-04-01T01:32:52;12.50;99.90
38456;DHT22;24237;50.106;20.014;2023-04-01T01:35:33;12.70;99.90
38456;DHT22;24237;50.106;20.014;2023-04-01T01:38:07;12.50;99.90
38456;DHT22;24237;50.106;20.014;2023-04-01T01:40:34;12.40;99.90
38456;DHT22;24237;50.106;20.014;2023-04-01T01:43:08;12.40;99.90
38456;DHT22;24237;50.106;20.014;2023-04-01T01:45:37;12.50;99.90
38456;DHT22;24237;50.106;20.014;2023-04-01T01:48:07;12.30;99.90
38456;DHT22;24237;50.106;20.014;2023-04-01T01:50:33;12.40;99.90
38456;DHT22;24237;50.106;20.014;2023-04-01T01:53:12;12.30;99.90
38456;DHT22;24237;50.106;20.014;2023-04-01T01:55:45;12.40;99.90
38456;DHT22;24237;50.106;20.014;2023-04-01T02:00:51;12.60;99.90
38456;DHT22;24237;50.106;20.014;2023-04-01T02:03:20;12.60;99.90
38456;DHT22;24237;50.106;20.014;2023-04-01T02:05:50;12.40;99.90
38456;DHT22;24237;50.106;20.014;2023-04-01T02:08:30;12.50;99.90
38456;DHT22;24237;50.106;20.014;2023-04-01T02:11:02;12.40;99.90
38456;DHT22;24237;50.106;20.014;2023-04-01T02:13:36;12.30;99.90
38456;DHT22;24237;50.106;20.014;2023-04-01T02:16:12;12.30;99.90
38456;DHT22;24237;50.106;20.014;2023-04-01T02:18:39;12.20;99.90
38456;DHT22;24237;50.106;20.014;2023-04-01T02:21:07;12.40;99.90
38456;DHT22;24237;50.106;20.014;2023-04-01T02:23:34;12.40;99.90
38456;DHT22;24237;50.106;20.014;2023-04-01T02:26:01;12.40;99.90
38456;DHT22;24237;50.106;20.014;2023-04-01T02:28:28;12.40;99.90
38456;DHT22;24237;50.106;20.014;2023-04-01T02:30:55;12.30;99.90
38456;DHT22;24237;50.106;20.014;2023-04-01T02:33:23;12.30;99.90
38456;DHT22;24237;50.106;20.014;2023-04-01T02:35:49;12.20;99.90
38456;DHT22;24237;50.106;20.014;2023-04-01T02:38:15;12.40;99.90
38456;DHT22;24237;50.106;20.014;2023-04-01T02:40:48;12.40;99.90
38456;DHT22;24237;50.106;20.014;2023-04-01T02:43:14;12.30;99.90
38456;DHT22;24237;50.106;20.014;2023-04-01T02:45:39;12.30;99.90
38456;DHT22;24237;50.106;20.014;2023-04-01T02:48:05;12.40;99.90
38456;DHT22;24237;50.106;20.014;2023-04-01T02:50:31;12.30;99.90
38456;DHT22;24237;50.106;20.014;2023-04-01T02:52:57;12.40;99.90
38456;DHT22;24237;50.106;20.014;2023-04-01T02:55:22;12.20;99.90
38456;DHT22;24237;50.106;20.014;2023-04-01T02:57:48;12.20;99.90
38456;DHT22;24237;50.106;20.014;2023-04-01T03:00:14;12.10;99.90
38456;DHT22;24237;50.106;20.014;2023-04-01T03:02:40;12.10;99.90
38456;DHT22;24237;50.106;20.014;2023-04-01T03:05:06;12.10;99.90
38456;DHT22;24237;50.106;20.014;2023-04-01T03:07:33;12.10;99.90
38456;DHT22;24237;50.106;20.014;2023-04-01T03:09:58;12.10;99.90
38456;DHT22;24237;50.106;20.014;2023-04-01T03:12:24;12.00;99.90
38456;DHT22;24237;50.106;20.014;2023-04-01T03:14:50;12.00;99.90
38456;DHT22;24237;50.106;20.014;2023-04-01T03:17:15;12.00;99.90
38456;DHT22;24237;50.106;20.014;2023-04-01T03:19:41;12.10;99.90
38456;DHT22;24237;50.106;20.014;2023-04-01T03:22:09;12.00;99.90
38456;DHT22;24237;50.106;20.014;2023-04-01T03:24:35;12.10;99.90
38456;DHT22;24237;50.106;20.014;2023-04-01T03:27:01;12.10;99.90
38456;DHT22;24237;50.106;20.014;2023-04-01T03:29:27;12.10;99.90
38456;DHT22;24237;50.106;20.014;2023-04-01T03:31:52;12.10;99.90
38456;DHT22;24237;50.106;20.014;2023-04-01T03:34:18;12.20;99.90
38456;DHT22;24237;50.106;20.014;2023-04-01T03:36:43;12.20;99.90
38456;DHT22;24237;50.106;20.014;2023-04-01T03:39:09;12.20;99.90
38456;DHT22;24237;50.106;20.014;2023-04-01T03:41:36;12.20;99.90
38456;DHT22;24237;50.106;20.014;2023-04-01T03:44:02;12.10;99.90
38456;DHT22;24237;50.106;20.014;2023-04-01T03:46:28;12.10;99.90
38456;DHT22;24237;50.106;20.014;2023-04-01T03:48:54;12.00;99.90
38456;DHT22;24237;50.106;20.014;2023-04-01T03:51:19;12.00;99.90
38456;DHT22;24237;50.106;20.014;2023-04-01T03:53:45;12.20;99.90
38456;DHT22;24237;50.106;20.014;2023-04-01T03:56:11;12.10;99.90
38456;DHT22;24237;50.106;20.014;2023-04-01T03:58:37;12.20;99.90
38456;DHT22;24237;50.106;20.014;2023-04-01T04:01:17;12.20;99.90
38456;DHT22;24237;50.106;20.014;2023-04-01T04:03:43;12.20;99.90
38456;DHT22;24237;50.106;20.014;2023-04-01T04:06:13;12.20;99.90
38456;DHT22;24237;50.106;20.014;2023-04-01T04:08:39;12.10;99.90
38456;DHT22;24237;50.106;20.014;2023-04-01T04:11:05;12.30;99.90
38456;DHT22;24237;50.106;20.014;2023-04-01T04:13:31;12.10;99.90
38456;DHT22;24237;50.106;20.014;2023-04-01T04:15:58;12.20;99.90
38456;DHT22;24237;50.106;20.014;2023-04-01T04:18:23;12.30;99.90
38456;DHT22;24237;50.106;20.014;2023-04-01T04:20:49;12.30;99.90
38456;DHT22;24237;50.106;20.014;2023-04-01T04:23:16;12.30;99.90
38456;DHT22;24237;50.106;20.014;2023-04-01T04:26:00;12.20;99.90
38456;DHT22;24237;50.106;20.014;2023-04-01T04:28:27;12.20;99.90
38456;DHT22;24237;50.106;20.014;2023-04-01T04:30:54;12.30;99.90
38456;DHT22;24237;50.106;20.014;2023-04-01T04:33:20;12.20;99.90
38456;DHT22;24237;50.106;20.014;2023-04-01T04:35:47;12.20;99.90
38456;DHT22;24237;50.106;20.014;2023-04-01T04:38:12;12.00;99.90
38456;DHT22;24237;50.106;20.014;2023-04-01T04:40:39;12.10;99.90
38456;DHT22;24237;50.106;20.014;2023-04-01T04:43:05;12.10;99.90
38456;DHT22;24237;50.106;20.014;2023-04-01T04:45:31;11.90;99.90
38456;DHT22;24237;50.106;20.014;2023-04-01T04:47:57;12.10;99.90
38456;DHT22;24237;50.106;20.014;2023-04-01T04:50:24;12.20;99.90
38456;DHT22;24237;50.106;20.014;2023-04-01T04:52:50;12.20;99.90
38456;DHT22;24237;50.106;20.014;2023-04-01T04:55:15;12.30;99.90
38456;DHT22;24237;50.106;20.014;2023-04-01T04:57:41;12.40;99.90
38456;DHT22;24237;50.106;20.014;2023-04-01T05:00:08;12.30;99.90
38456;DHT22;24237;50.106;20.014;2023-04-01T05:02:35;12.30;99.90
38456;DHT22;24237;50.106;20.014;2023-04-01T05:05:01;12.30;99.90
38456;DHT22;24237;50.106;20.014;2023-04-01T05:07:26;12.30;99.90
38456;DHT22;24237;50.106;20.014;2023-04-01T05:09:52;12.20;99.90
38456;DHT22;24237;50.106;20.014;2023-04-01T05:12:18;12.30;99.90
38456;DHT22;24237;50.106;20.014;2023-04-01T05:14:43;12.30;99.90
38456;DHT22;24237;50.106;20.014;2023-04-01T05:17:10;12.30;99.90
38456;DHT22;24237;50.106;20.014;2023-04-01T05:19:36;12.30;99.90
38456;DHT22;24237;50.106;20.014;2023-04-01T05:22:02;12.60;99.90
38456;DHT22;24237;50.106;20.014;2023-04-01T05:24:28;12.40;99.90
38456;DHT22;24237;50.106;20.014;2023-04-01T05:26:53;12.50;99.90
38456;DHT22;24237;50.106;20.014;2023-04-01T05:29:19;12.40;99.90
38456;DHT22;24237;50.106;20.014;2023-04-01T05:31:45;12.50;99.90
38456;DHT22;24237;50.106;20.014;2023-04-01T05:34:10;12.50;99.90
38456;DHT22;24237;50.106;20.014;2023-04-01T05:36:36;12.70;99.90
38456;DHT22;24237;50.106;20.014;2023-04-01T05:39:02;12.70;99.90
38456;DHT22;24237;50.106;20.014;2023-04-01T05:41:28;12.60;99.90
38456;DHT22;24237;50.106;20.014;2023-04-01T05:43:54;12.70;99.90
38456;DHT22;24237;50.106;20.014;2023-04-01T05:46:20;12.90;99.90
38456;DHT22;24237;50.106;20.014;2023-04-01T05:48:45;13.10;99.90
38456;DHT22;24237;50.106;20.014;2023-04-01T05:51:13;13.20;99.90
38456;DHT22;24237;50.106;20.014;2023-04-01T05:53:39;13.10;99.90
38456;DHT22;24237;50.106;20.014;2023-04-01T05:56:05;12.90;99.90
38456;DHT22;24237;50.106;20.014;2023-04-01T05:58:31;12.60;99.90
38456;DHT22;24237;50.106;20.014;2023-04-01T06:01:05;12.70;99.90
38456;DHT22;24237;50.106;20.014;2023-04-01T06:03:32;12.70;99.90
38456;DHT22;24237;50.106;20.014;2023-04-01T06:05:58;12.80;99.90
38456;DHT22;24237;50.106;20.014;2023-04-01T06:08:24;12.90;99.90
38456;DHT22;24237;50.106;20.014;2023-04-01T06:11:31;12.90;99.90
38456;DHT22;24237;50.106;20.014;2023-04-01T06:14:12;13.20;99.90
38456;DHT22;24237;50.106;20.014;2023-04-01T06:27:13;13.40;99.90
38456;DHT22;24237;50.106;20.014;2023-04-01T06:32:46;13.20;99.90
38456;DHT22;24237;50.106;20.014;2023-04-01T06:45:47;13.00;99.90
38456;DHT22;24237;50.106;20.014;2023-04-01T06:54:03;13.10;99.90
38456;DHT22;24237;50.106;20.014;2023-04-01T06:56:32;13.30;99.90
38456;DHT22;24237;50.106;20.014;2023-04-01T06:59:13;13.30;99.90
38456;DHT22;24237;50.106;20.014;2023-04-01T07:02:00;13.40;99.90
38456;DHT22;24237;50.106;20.014;2023-04-01T07:04:34;13.10;99.90
38456;DHT22;24237;50.106;20.014;2023-04-01T07:07:49;13.20;99.90
38456;DHT22;24237;50.106;20.014;2023-04-01T07:13:04;13.30;99.90
38456;DHT22;24237;50.106;20.014;2023-04-01T07:15:37;13.30;99.90
38456;DHT22;24237;50.106;20.014;2023-04-01T07:18:22;13.30;99.90
38456;DHT22;24237;50.106;20.014;2023-04-01T07:20:50;13.50;99.90
38456;DHT22;24237;50.106;20.014;2023-04-01T07:23:24;13.50;99.90
38456;DHT22;24237;50.106;20.014;2023-04-01T07:26:01;13.70;99.90
38456;DHT22;24237;50.106;20.014;2023-04-01T07:28:32;14.00;99.90
38456;DHT22;24237;50.106;20.014;2023-04-01T07:34:00;14.10;99.90
38456;DHT22;24237;50.106;20.014;2023-04-01T07:42:03;14.20;99.90
38456;DHT22;24237;50.106;20.014;2023-04-01T07:44:49;14.30;99.90
38456;DHT22;24237;50.106;20.014;2023-04-01T07:52:50;14.50;99.90
38456;DHT22;24237;50.106;20.014;2023-04-01T07:58:08;14.30;99.90
38456;DHT22;24237;50.106;20.014;2023-04-01T08:03:36;14.40;99.90
38456;DHT22;24237;50.106;20.014;2023-04-01T08:06:27;14.00;99.90
38456;DHT22;24237;50.106;20.014;2023-04-01T08:09:15;14.30;99.90
38456;DHT22;24237;50.106;20.014;2023-04-01T08:11:57;14.10;99.90
38456;DHT22;24237;50.106;20.014;2023-04-01T08:14:53;14.00;99.90
38456;DHT22;24237;50.106;20.014;2023-04-01T08:23:22;14.30;99.90
38456;DHT22;24237;50.106;20.014;2023-04-01T08:28:29;14.70;99.90
38456;DHT22;24237;50.106;20.014;2023-04-01T08:31:09;15.00;99.90
38456;DHT22;24237;50.106;20.014;2023-04-01T08:33:36;15.10;99.90
38456;DHT22;24237;50.106;20.014;2023-04-01T08:36:16;14.70;99.90
38456;DHT22;24237;50.106;20.014;2023-04-01T08:38:51;14.70;99.90
38456;DHT22;24237;50.106;20.014;2023-04-01T08:57:40;15.10;99.90
38456;DHT22;24237;50.106;20.014;2023-04-01T09:06:07;15.80;99.90
38456;DHT22;24237;50.106;20.014;2023-04-01T09:11:08;15.30;99.90
38456;DHT22;24237;50.106;20.014;2023-04-01T09:25:34;14.90;99.90
38456;DHT22;24237;50.106;20.014;2023-04-01T09:36:37;14.30;99.90
38456;DHT22;24237;50.106;20.014;2023-04-01T09:38:58;14.40;99.90
38456;DHT22;24237;50.106;20.014;2023-04-01T09:41:59;14.70;99.90
38456;DHT22;24237;50.106;20.014;2023-04-01T09:44:35;14.80;99.90
38456;DHT22;24237;50.106;20.014;2023-04-01T09:47:47;14.80;99.90
38456;DHT22;24237;50.106;20.014;2023-04-01T09:53:55;14.60;99.90
38456;DHT22;24237;50.106;20.014;2023-04-01T09:56:52;14.70;99.90
38456;DHT22;24237;50.106;20.014;2023-04-01T10:13:48;14.20;99.90
38456;DHT22;24237;50.106;20.014;2023-04-01T10:22:35;14.90;99.90
38456;DHT22;24237;50.106;20.014;2023-04-01T10:25:36;15.00;99.90
38456;DHT22;24237;50.106;20.014;2023-04-01T10:31:23;14.10;99.90
38456;DHT22;24237;50.106;20.014;2023-04-01T10:56:34;15.90;99.90
38456;DHT22;24237;50.106;20.014;2023-04-01T11:16:37;15.30;99.90
38456;DHT22;24237;50.106;20.014;2023-04-01T11:33:24;15.40;99.90
38456;DHT22;24237;50.106;20.014;2023-04-01T11:44:20;15.00;99.90
38456;DHT22;24237;50.106;20.014;2023-04-01T11:47:22;14.90;99.90
38456;DHT22;24237;50.106;20.014;2023-04-01T11:53:01;14.60;99.90
38456;DHT22;24237;50.106;20.014;2023-04-01T12:06:08;15.90;99.90
38456;DHT22;24237;50.106;20.014;2023-04-01T12:11:29;16.70;99.90
38456;DHT22;24237;50.106;20.014;2023-04-01T12:14:44;17.40;99.90
38456;DHT22;24237;50.106;20.014;2023-04-01T12:20:14;17.30;99.90
38456;DHT22;24237;50.106;20.014;2023-04-01T12:26:00;15.50;99.90
38456;DHT22;24237;50.106;20.014;2023-04-01T12:36:59;15.00;99.90
38456;DHT22;24237;50.106;20.014;2023-04-01T12:42:38;15.20;99.90
38456;DHT22;24237;50.106;20.014;2023-04-01T12:55:54;15.00;99.90
38456;DHT22;24237;50.106;20.014;2023-04-01T13:09:33;15.00;99.90
38456;DHT22;24237;50.106;20.014;2023-04-01T13:28:38;16.50;99.90
38456;DHT22;24237;50.106;20.014;2023-04-01T13:42:32;15.00;99.90
38456;DHT22;24237;50.106;20.014;2023-04-01T13:45:15;14.70;99.90
38456;DHT22;24237;50.106;20.014;2023-04-01T13:47:55;14.80;99.90
38456;DHT22;24237;50.106;20.014;2023-04-01T14:07:08;15.40;99.90
38456;DHT22;24237;50.106;20.014;2023-04-01T14:10:04;15.50;99.90
38456;DHT22;24237;50.106;20.014;2023-04-01T14:13:03;15.50;99.90
38456;DHT22;24237;50.106;20.014;2023-04-01T14:21:17;17.30;99.90
38456;DHT22;24237;50.106;20.014;2023-04-01T14:27:03;19.50;99.90
38456;DHT22;24237;50.106;20.014;2023-04-01T14:32:44;18.10;99.90
38456;DHT22;24237;50.106;20.014;2023-04-01T14:38:02;16.70;99.90
38456;DHT22;24237;50.106;20.014;2023-04-01T14:49:32;14.60;99.90
38456;DHT22;24237;50.106;20.014;2023-04-01T14:52:16;14.80;99.90
38456;DHT22;24237;50.106;20.014;2023-04-01T14:54:48;14.60;99.90
38456;DHT22;24237;50.106;20.014;2023-04-01T14:57:24;14.50;99.90
38456;DHT22;24237;50.106;20.014;2023-04-01T15:05:45;14.20;99.90
38456;DHT22;24237;50.106;20.014;2023-04-01T15:08:32;14.40;99.90
38456;DHT22;24237;50.106;20.014;2023-04-01T15:16:30;14.50;99.90
38456;DHT22;24237;50.106;20.014;2023-04-01T15:25:04;14.10;99.90
38456;DHT22;24237;50.106;20.014;2023-04-01T15:33:17;13.60;99.90
38456;DHT22;24237;50.106;20.014;2023-04-01T15:43:46;13.20;99.90
38456;DHT22;24237;50.106;20.014;2023-04-01T15:49:20;13.10;99.90
38456;DHT22;24237;50.106;20.014;2023-04-01T15:52:10;13.30;99.90
38456;DHT22;24237;50.106;20.014;2023-04-01T15:55:00;13.30;99.90
38456;DHT22;24237;50.106;20.014;2023-04-01T16:00:16;13.40;99.90
38456;DHT22;24237;50.106;20.014;2023-04-01T16:11:27;13.20;99.90
38456;DHT22;24237;50.106;20.014;2023-04-01T16:17:23;13.60;99.90
38456;DHT22;24237;50.106;20.014;2023-04-01T16:22:44;13.90;99.90
38456;DHT22;24237;50.106;20.014;2023-04-01T16:28:17;14.00;99.90
38456;DHT22;24237;50.106;20.014;2023-04-01T16:33:47;13.70;99.90
38456;DHT22;24237;50.106;20.014;2023-04-01T16:36:32;13.60;99.90
38456;DHT22;24237;50.106;20.014;2023-04-01T16:45:24;13.40;99.90
38456;DHT22;24237;50.106;20.014;2023-04-01T16:47:56;13.40;99.90
38456;DHT22;24237;50.106;20.014;2023-04-01T16:50:24;13.50;99.90
38456;DHT22;24237;50.106;20.014;2023-04-01T16:58:27;13.40;99.90
38456;DHT22;24237;50.106;20.014;2023-04-01T17:01:16;13.30;99.90
38456;DHT22;24237;50.106;20.014;2023-04-01T17:03:45;13.30;99.90
38456;DHT22;24237;50.106;20.014;2023-04-01T17:06:18;13.50;99.90
38456;DHT22;24237;50.106;20.014;2023-04-01T17:08:53;13.50;99.90
38456;DHT22;24237;50.106;20.014;2023-04-01T17:14:07;13.20;99.90
38456;DHT22;24237;50.106;20.014;2023-04-01T17:16:54;13.20;99.90
38456;DHT22;24237;50.106;20.014;2023-04-01T17:22:49;13.20;99.90
38456;DHT22;24237;50.106;20.014;2023-04-01T17:25:45;13.30;99.90
38456;DHT22;24237;50.106;20.014;2023-04-01T17:34:39;13.50;99.90
38456;DHT22;24237;50.106;20.014;2023-04-01T17:43:02;13.40;99.90
38456;DHT22;24237;50.106;20.014;2023-04-01T17:45:44;13.50;99.90
38456;DHT22;24237;50.106;20.014;2023-04-01T17:51:17;13.20;99.90
38456;DHT22;24237;50.106;20.014;2023-04-01T18:10:32;13.10;99.90
38456;DHT22;24237;50.106;20.014;2023-04-01T18:27:03;13.30;99.90
38456;DHT22;24237;50.106;20.014;2023-04-01T18:29:39;13.20;99.90
38456;DHT22;24237;50.106;20.014;2023-04-01T18:32:14;13.20;99.90
38456;DHT22;24237;50.106;20.014;2023-04-01T18:34:53;13.10;99.90
38456;DHT22;24237;50.106;20.014;2023-04-01T18:42:44;13.30;99.90
38456;DHT22;24237;50.106;20.014;2023-04-01T18:53:19;12.90;99.90
38456;DHT22;24237;50.106;20.014;2023-04-01T18:55:59;13.00;99.90
38456;DHT22;24237;50.106;20.014;2023-04-01T19:06:26;13.00;99.90
38456;DHT22;24237;50.106;20.014;2023-04-01T19:08:53;13.00;99.90
38456;DHT22;24237;50.106;20.014;2023-04-01T19:19:25;12.80;99.90
38456;DHT22;24237;50.106;20.014;2023-04-01T19:24:55;12.90;99.90
38456;DHT22;24237;50.106;20.014;2023-04-01T19:27:40;13.10;99.90
38456;DHT22;24237;50.106;20.014;2023-04-01T19:30:23;13.00;99.90
38456;DHT22;24237;50.106;20.014;2023-04-01T19:38:19;13.00;99.90
38456;DHT22;24237;50.106;20.014;2023-04-01T19:41:11;12.80;99.90
38456;DHT22;24237;50.106;20.014;2023-04-01T19:52:33;12.60;99.90
38456;DHT22;24237;50.106;20.014;2023-04-01T20:03:05;12.50;99.90
38456;DHT22;24237;50.106;20.014;2023-04-01T20:08:39;12.40;99.90
38456;DHT22;24237;50.106;20.014;2023-04-01T20:14:09;12.70;99.90
38456;DHT22;24237;50.106;20.014;2023-04-01T20:19:40;12.70;99.90
38456;DHT22;24237;50.106;20.014;2023-04-01T20:22:27;12.80;99.90
38456;DHT22;24237;50.106;20.014;2023-04-01T20:25:04;12.80;99.90
38456;DHT22;24237;50.106;20.014;2023-04-01T20:27:35;12.70;99.90
38456;DHT22;24237;50.106;20.014;2023-04-01T20:30:23;12.60;99.90
38456;DHT22;24237;50.106;20.014;2023-04-01T20:35:35;12.40;99.90
38456;DHT22;24237;50.106;20.014;2023-04-01T20:41:12;12.30;99.90
38456;DHT22;24237;50.106;20.014;2023-04-01T20:43:54;12.40;99.90
38456;DHT22;24237;50.106;20.014;2023-04-01T20:46:39;12.30;99.90
38456;DHT22;24237;50.106;20.014;2023-04-01T20:57:50;12.50;99.90
38456;DHT22;24237;50.106;20.014;2023-04-01T21:11:51;12.40;99.90
38456;DHT22;24237;50.106;20.014;2023-04-01T21:14:39;12.50;99.90
38456;DHT22;24237;50.106;20.014;2023-04-01T21:28:09;12.40;99.90
38456;DHT22;24237;50.106;20.014;2023-04-01T22:00:24;12.20;99.90
38456;DHT22;24237;50.106;20.014;2023-04-01T22:11:04;12.40;99.90
38456;DHT22;24237;50.106;20.014;2023-04-01T22:16:36;12.60;99.90
38456;DHT22;24237;50.106;20.014;2023-04-01T22:22:12;12.50;99.90
38456;DHT22;24237;50.106;20.014;2023-04-01T22:24:51;12.40;99.90
38456;DHT22;24237;50.106;20.014;2023-04-01T22:27:24;12.50;99.90
38456;DHT22;24237;50.106;20.014;2023-04-01T22:32:54;12.40;99.90
38456;DHT22;24237;50.106;20.014;2023-04-01T22:35:41;12.20;99.90
38456;DHT22;24237;50.106;20.014;2023-04-01T22:38:27;12.10;99.90
38456;DHT22;24237;50.106;20.014;2023-04-01T22:41:15;12.20;99.90
38456;DHT22;24237;50.106;20.014;2023-04-01T22:43:45;12.20;99.90
38456;DHT22;24237;50.106;20.014;2023-04-01T22:46:37;12.20;99.90
38456;DHT22;24237;50.106;20.014;2023-04-01T22:49:15;12.20;99.90
38456;DHT22;24237;50.106;20.014;2023-04-01T22:54:43;12.30;99.90
38456;DHT22;24237;50.106;20.014;2023-04-01T23:00:24;12.00;99.90
38456;DHT22;24237;50.106;20.014;2023-04-01T23:03:20;12.10;99.90
38456;DHT22;24237;50.106;20.014;2023-04-01T23:08:36;12.10;99.90
38456;DHT22;24237;50.106;20.014;2023-04-01T23:19:55;12.20;99.90
38456;DHT22;24237;50.106;20.014;2023-04-01T23:28:49;12.10;99.90
38456;DHT22;24237;50.106;20.014;2023-04-01T23:31:37;12.00;99.90
38456;DHT22;24237;50.106;20.014;2023-04-01T23:41:50;12.30;99.90
38456;DHT22;24237;50.106;20.014;2023-04-01T23:44:16;12.20;99.90
38456;DHT22;24237;50.106;20.014;2023-04-01T23:46:44;12.30;99.90
38456;DHT22;24237;50.106;20.014;2023-04-01T23:49:19;12.30;99.90
38456;DHT22;24237;50.106;20.014;2023-04-01T23:51:59;12.10;99.90
38456;DHT22;24237;50.106;20.014;2023-04-01T23:54:34;12.10;99.90
38456;DHT22;24237;50.106;20.014;2023-04-01T23:57:12;12.10;99.90
38456;DHT22;24237;50.106;20.014;2023-04-01T23:59:39;12.10;99.90
